Yumihari — JG5704 — position and weather

sailwx.info

Track history (hours):
 
Tides and Currents Weather Stations Pressure Air Temp Water Temp Dewpoint Dewpoint Depression Visibility Wind Speed Wind Dir Waves Ship Positions

Yumihari

Last reported at 2017-Oct-17 01:01 UTC. Time now 2017-Oct-17 01:14 UTC.
Position N 35°27' E 139°39'.

Length 35 m; draft 4 m.

Type: Tug. MMSI: 431000397.

Date/timePositionNaut miles runAvg speedWind from/ knotsBaromVisibWave heightAir tempDewpointWater temp
2017-Oct-17 01:01N 35°27' E 139°39'0 0.0
2017-Oct-17 00:30N 35°27' E 139°39'0 0.0
2017-Oct-17 00:00N 35°27' E 139°39'0 0.0
2017-Oct-16 23:30N 35°27' E 139°39'0 0.0
2017-Oct-16 23:00N 35°27' E 139°39'0 0.0
2017-Oct-16 22:30N 35°27' E 139°39'0 0.0
2017-Oct-16 22:01N 35°27' E 139°39'0 0.0
2017-Oct-16 21:30N 35°27' E 139°39'0 0.0
2017-Oct-16 21:01N 35°27' E 139°39'0 0.0
2017-Oct-16 20:30N 35°27' E 139°39'0 0.0
2017-Oct-16 20:00N 35°27' E 139°39'0 0.0
2017-Oct-16 19:30N 35°27' E 139°39'0 0.0
2017-Oct-16 19:00N 35°27' E 139°39'0 0.0
2017-Oct-16 18:30N 35°27' E 139°39'0 0.0
2017-Oct-16 18:00N 35°27' E 139°39'0 0.0
2017-Oct-16 17:30N 35°27' E 139°39'0 0.0
2017-Oct-16 17:00N 35°27' E 139°39'0 0.0
2017-Oct-16 16:30N 35°27' E 139°39'0 0.0
2017-Oct-16 16:00N 35°27' E 139°39'0 0.0
2017-Oct-16 15:30N 35°27' E 139°39'0 0.0
2017-Oct-16 15:00N 35°27' E 139°39'0 0.0
2017-Oct-16 14:00N 35°27' E 139°39'0 0.0
2017-Oct-16 13:30N 35°27' E 139°39'0 0.0
2017-Oct-16 13:00N 35°27' E 139°39'0 0.0
2017-Oct-16 12:30N 35°27' E 139°39'0 0.0
2017-Oct-16 12:00N 35°27' E 139°39'0 0.0
2017-Oct-16 11:30N 35°27' E 139°39'0 0.0
2017-Oct-16 11:00N 35°27' E 139°39'0 0.0
2017-Oct-16 10:30N 35°27' E 139°39'0 0.0
2017-Oct-16 10:00N 35°27' E 139°39'0 0.0
2017-Oct-16 09:30N 35°27' E 139°39'0 0.0
2017-Oct-16 09:00N 35°27' E 139°39'0 0.0
2017-Oct-16 08:30N 35°27' E 139°39'0 0.0
2017-Oct-16 08:00N 35°27' E 139°39'0 0.0
2017-Oct-16 07:30N 35°27' E 139°39'0 0.0
2017-Oct-16 07:00N 35°27' E 139°39'0 0.0
2017-Oct-16 06:30N 35°27' E 139°39'0 0.0
2017-Oct-16 06:00N 35°27' E 139°39'0 0.0
2017-Oct-16 05:30N 35°27' E 139°39'0 0.3
2017-Oct-16 05:00N 35°27' E 139°39'2 3.0
2017-Oct-16 04:30N 35°26' E 139°41'1 2.1
2017-Oct-16 04:01N 35°26' E 139°42'0 1.0
2017-Oct-16 03:30N 35°27' E 139°42'0 0.0
2017-Oct-16 03:00N 35°27' E 139°42'0 0.0
2017-Oct-16 02:30N 35°27' E 139°42'0 0.0
2017-Oct-16 02:00N 35°27' E 139°42'3 5.1
2017-Oct-16 01:31N 35°29' E 139°43'0 0.2
2017-Oct-16 01:00N 35°29' E 139°43'2 4.4
2017-Oct-16 00:30N 35°27' E 139°43'0 0.4
2017-Oct-16 00:00N 35°27' E 139°43'1 1.9
2017-Oct-15 23:30N 35°28' E 139°42'0 0.0
2017-Oct-15 23:00N 35°28' E 139°42'0 0.4
2017-Oct-15 22:31N 35°28' E 139°42'2 3.4
2017-Oct-15 22:01N 35°27' E 139°43'2 4.7
2017-Oct-15 21:31N 35°27' E 139°41'1 2.1
2017-Oct-15 21:01N 35°27' E 139°39'0 0.0
2017-Oct-15 20:30N 35°27' E 139°39'0 0.0
2017-Oct-15 20:00N 35°27' E 139°39'0 0.0
2017-Oct-15 19:30N 35°27' E 139°39'0 0.0
2017-Oct-15 19:00N 35°27' E 139°39'0 0.0
2017-Oct-15 18:30N 35°27' E 139°39'0 0.0
2017-Oct-15 18:00N 35°27' E 139°39'0 0.0
2017-Oct-15 17:30N 35°27' E 139°39'0 0.0
2017-Oct-15 17:00N 35°27' E 139°39'0 0.0
2017-Oct-15 16:30N 35°27' E 139°39'0 0.0
2017-Oct-15 16:00N 35°27' E 139°39'0 0.0
2017-Oct-15 15:30N 35°27' E 139°39'0 0.0
2017-Oct-15 15:00N 35°27' E 139°39'0 0.0
2017-Oct-15 14:00N 35°27' E 139°39'0 0.0
2017-Oct-15 13:30N 35°27' E 139°39'0 0.0
2017-Oct-15 13:00N 35°27' E 139°39'0 0.0
2017-Oct-15 07:29N 35°27' E 139°39'0 0.0
2017-Oct-15 07:00N 35°27' E 139°39'0 0.0
2017-Oct-15 06:30N 35°27' E 139°39'0 0.0
2017-Oct-15 06:00N 35°27' E 139°39'0 0.0
2017-Oct-15 05:30N 35°27' E 139°39'0 0.0
2017-Oct-15 05:00N 35°27' E 139°39'0 0.0
2017-Oct-15 04:30N 35°27' E 139°39'0 0.0
2017-Oct-15 04:00N 35°27' E 139°39'0 0.0
2017-Oct-15 03:30N 35°27' E 139°39'0 0.0
2017-Oct-15 03:00N 35°27' E 139°39'0 0.0
2017-Oct-15 02:30N 35°27' E 139°39'0 0.0
2017-Oct-15 02:00N 35°27' E 139°39'0 0.0
2017-Oct-15 01:30N 35°27' E 139°39'0 0.0
2017-Oct-15 01:00N 35°27' E 139°39'0 0.0
2017-Oct-15 00:30N 35°27' E 139°39'0 0.0
2017-Oct-15 00:00N 35°27' E 139°39'0 0.0
2017-Oct-14 23:30N 35°27' E 139°39'0 0.0
2017-Oct-14 07:13N 35°27' E 139°39'0 0.0
2017-Oct-14 07:01N 35°27' E 139°39'0 0.0
2017-Oct-14 06:31N 35°27' E 139°39'0 0.0
2017-Oct-14 06:01N 35°27' E 139°39'0 0.0
2017-Oct-14 05:31N 35°27' E 139°39'0 0.0
2017-Oct-14 05:01N 35°27' E 139°39'0 0.0
2017-Oct-14 04:31N 35°27' E 139°39'0 0.0
2017-Oct-14 04:01N 35°27' E 139°39'0 0.0
2017-Oct-14 03:31N 35°27' E 139°39'2 3.4
2017-Oct-14 03:00N 35°27' E 139°41'0 1.0
2017-Oct-14 02:31N 35°27' E 139°41'1 2.1
2017-Oct-14 02:01N 35°28' E 139°40'0 0.0
2017-Oct-14 01:30N 35°28' E 139°40'0 0.0
2017-Oct-14 01:01N 35°28' E 139°40'1 1.8
2017-Oct-14 00:31N 35°27' E 139°40'1 1.0
2017-Oct-14 00:01N 35°27' E 139°39'0 0.6
2017-Oct-13 23:31N 35°27' E 139°39'0 0.0
2017-Oct-13 23:00N 35°27' E 139°39'0 0.9
2017-Oct-13 22:30N 35°27' E 139°40'0 0.1
2017-Oct-13 22:00N 35°27' E 139°40'2 3.7
2017-Oct-13 21:30N 35°26' E 139°42'2 3.0
2017-Oct-13 21:00N 35°26' E 139°44'4 7.2
2017-Oct-13 20:30N 35°27' E 139°40'0 0.0
2017-Oct-13 20:00N 35°27' E 139°40'0 0.0
2017-Oct-13 19:31N 35°27' E 139°40'0 0.0
2017-Oct-13 19:00N 35°27' E 139°40'0 0.0
2017-Oct-13 18:31N 35°27' E 139°40'0 0.0
2017-Oct-13 18:00N 35°27' E 139°40'0 0.0
2017-Oct-13 17:30N 35°27' E 139°40'0 0.0
2017-Oct-13 17:00N 35°27' E 139°40'0 0.0
2017-Oct-13 16:30N 35°27' E 139°40'0 0.0
2017-Oct-13 16:01N 35°27' E 139°40'0 0.0
2017-Oct-13 15:30N 35°27' E 139°40'0 0.0
2017-Oct-13 15:00N 35°27' E 139°40'0 0.0
2017-Oct-13 14:30N 35°27' E 139°40'0 0.0
2017-Oct-13 14:00N 35°27' E 139°40'0 0.0
2017-Oct-13 13:30N 35°27' E 139°40'0 0.0
2017-Oct-13 13:01N 35°27' E 139°40'0 0.0
2017-Oct-13 12:31N 35°27' E 139°40'0 0.0
2017-Oct-13 12:01N 35°27' E 139°40'0 0.0
2017-Oct-13 11:30N 35°27' E 139°40'0 0.0
2017-Oct-13 11:01N 35°27' E 139°40'0 0.0
2017-Oct-13 10:30N 35°27' E 139°40'0 0.0
2017-Oct-13 10:01N 35°27' E 139°40'0 0.0
2017-Oct-13 09:30N 35°27' E 139°40'0 0.0
2017-Oct-13 09:00N 35°27' E 139°40'1 1.8
2017-Oct-13 08:31N 35°27' E 139°41'4 8.0
2017-Oct-13 08:00N 35°29' E 139°45'1 2.7
2017-Oct-13 07:31N 35°30' E 139°46'3 6.4
2017-Oct-13 07:00N 35°28' E 139°43'2 4.9
2017-Oct-13 06:30N 35°28' E 139°41'0 0.0
2017-Oct-13 06:00N 35°28' E 139°41'0 0.0
2017-Oct-13 05:30N 35°28' E 139°41'0 0.0
2017-Oct-13 05:00N 35°28' E 139°41'0 0.0
2017-Oct-13 04:30N 35°28' E 139°41'0 0.0
2017-Oct-13 04:00N 35°28' E 139°41'0 0.0
2017-Oct-13 03:30N 35°28' E 139°41'2 4.3
2017-Oct-13 03:00N 35°26' E 139°42'2 3.7
2017-Oct-13 02:30N 35°24' E 139°41'0 0.6
2017-Oct-13 02:00N 35°24' E 139°41'2 4.8
2017-Oct-13 01:30N 35°26' E 139°42'2 3.3
2017-Oct-13 01:00N 35°28' E 139°41'0 0.0
2017-Oct-13 00:30N 35°28' E 139°41'0 0.0
2017-Oct-13 00:00N 35°28' E 139°41'0 0.0
2017-Oct-12 23:30N 35°28' E 139°41'0 0.0
2017-Oct-12 23:00N 35°28' E 139°41'1 1.0
2017-Oct-12 22:30N 35°27' E 139°41'0 0.6
2017-Oct-12 22:01N 35°27' E 139°41'3 5.1
2017-Oct-12 21:31N 35°25' E 139°43'3 6.0
2017-Oct-12 21:01N 35°27' E 139°41'1 1.4
2017-Oct-12 20:30N 35°27' E 139°40'0 0.0
2017-Oct-12 20:00N 35°27' E 139°40'0 0.0
2017-Oct-12 07:13N 35°27' E 139°40'0 0.0
2017-Oct-12 07:00N 35°27' E 139°40'0 0.0
2017-Oct-12 06:30N 35°27' E 139°40'0 0.0
2017-Oct-12 06:00N 35°27' E 139°40'0 0.0
2017-Oct-12 05:30N 35°27' E 139°40'0 0.0
2017-Oct-12 05:00N 35°27' E 139°40'0 0.0
2017-Oct-12 04:30N 35°27' E 139°40'0 0.0
2017-Oct-12 04:01N 35°27' E 139°40'0 0.2
2017-Oct-12 03:30N 35°27' E 139°40'4 8.8
2017-Oct-12 03:00N 35°28' E 139°45'510.2
2017-Oct-12 02:30N 35°29' E 139°51'610.2
2017-Oct-12 01:55N 35°30' E 139°58'8 2.5
2017-Oct-11 22:36N 35°27' E 139°49'1 8.0
2017-Oct-11 22:29N 35°27' E 139°48'6 7.8
2017-Oct-11 21:45N 35°27' E 139°41'4 0.2
2017-Oct-10 23:55N 35°26' E 139°45'3 5.4
2017-Oct-10 23:20N 35°27' E 139°41'1 0.1
2017-Oct-10 14:55N 35°27' E 139°40'0 0.1
2017-Oct-10 14:00N 35°27' E 139°40'0 0.0
2017-Oct-10 07:29N 35°27' E 139°40'0 0.0
2017-Oct-10 07:00N 35°27' E 139°40'0 0.1
2017-Oct-10 06:30N 35°27' E 139°40'0 0.0
2017-Oct-10 06:00N 35°27' E 139°40'0 0.0
2017-Oct-10 05:30N 35°27' E 139°40'1 2.4
2017-Oct-10 05:01N 35°26' E 139°41'0 0.0
2017-Oct-10 04:30N 35°26' E 139°41'1 2.4
2017-Oct-10 04:00N 35°27' E 139°40'0 0.0
2017-Oct-10 03:30N 35°27' E 139°40'0 0.1
2017-Oct-10 03:00N 35°27' E 139°40'0 0.1
2017-Oct-10 02:30N 35°27' E 139°40'0 0.1
2017-Oct-10 02:00N 35°27' E 139°40'0 0.0
2017-Oct-10 01:30N 35°27' E 139°40'0 0.1
2017-Oct-10 01:00N 35°27' E 139°40'0 0.0
2017-Oct-10 00:30N 35°27' E 139°40'0 0.0
2017-Oct-10 00:00N 35°27' E 139°40'0 0.0
2017-Oct-09 23:30N 35°27' E 139°40'0 0.1
2017-Oct-09 23:00N 35°27' E 139°40'3 6.9
2017-Oct-09 22:30N 35°28' E 139°44'3 1.8
2017-Oct-09 20:58N 35°28' E 139°40'1 0.1
2017-Oct-09 09:11N 35°27' E 139°40'2 7.4
2017-Oct-09 08:55N 35°28' E 139°42'0 0.3
2017-Oct-09 07:57N 35°28' E 139°42'0 0.1
2017-Oct-09 07:27N 35°28' E 139°42'1 1.8
2017-Oct-09 06:59N 35°27' E 139°41'0 0.0
2017-Oct-09 06:30N 35°27' E 139°41'1 0.2
2017-Oct-09 01:43N 35°27' E 139°40'2 7.6
2017-Oct-09 01:27N 35°27' E 139°43'4 8.5
2017-Oct-09 00:59N 35°30' E 139°46'5 3.4
2017-Oct-08 23:30N 35°27' E 139°41'1 0.0
2017-Oct-07 23:17N 35°27' E 139°40'0 1.1
2017-Oct-07 23:00N 35°27' E 139°40'1 1.6
2017-Oct-07 22:30N 35°27' E 139°41'1 1.2
2017-Oct-07 22:00N 35°27' E 139°41'2 4.1
2017-Oct-07 21:30N 35°25' E 139°43'1 2.9
2017-Oct-07 21:00N 35°26' E 139°42'0 0.1
2017-Oct-07 20:30N 35°26' E 139°42'1 1.3
2017-Oct-07 20:00N 35°27' E 139°41'0 0.6
2017-Oct-07 19:30N 35°26' E 139°41'1 2.5
2017-Oct-07 19:00N 35°27' E 139°42'0 0.0
2017-Oct-07 18:30N 35°27' E 139°42'0 0.0
2017-Oct-07 18:00N 35°27' E 139°42'0 0.0
2017-Oct-07 17:30N 35°27' E 139°42'0 0.0
2017-Oct-07 17:00N 35°27' E 139°42'0 0.0
2017-Oct-07 16:30N 35°27' E 139°42'0 0.0
2017-Oct-07 16:00N 35°27' E 139°42'0 0.6
2017-Oct-07 15:30N 35°27' E 139°42'1 1.2
2017-Oct-07 15:00N 35°28' E 139°42'1 2.5
2017-Oct-07 14:30N 35°27' E 139°43'2 3.1
2017-Oct-07 14:00N 35°26' E 139°42'0 0.0
2017-Oct-07 13:30N 35°26' E 139°42'0 0.0
2017-Oct-07 13:00N 35°26' E 139°42'0 0.0
2017-Oct-07 12:30N 35°26' E 139°42'0 0.0
2017-Oct-07 12:00N 35°26' E 139°42'3 5.3
2017-Oct-07 11:31N 35°24' E 139°41'1 1.1
2017-Oct-07 11:00N 35°24' E 139°41'1 2.0
2017-Oct-07 10:30N 35°23' E 139°41'3 5.7
2017-Oct-07 10:00N 35°26' E 139°42'0 0.6
2017-Oct-07 09:30N 35°26' E 139°42'0 0.0
2017-Oct-07 09:00N 35°26' E 139°42'0 0.0
2017-Oct-07 08:30N 35°26' E 139°42'1 1.9
2017-Oct-07 08:00N 35°27' E 139°41'0 0.4
2017-Oct-07 07:30N 35°27' E 139°41'2 3.2
2017-Oct-07 07:00N 35°27' E 139°39'0 0.1
2017-Oct-07 06:31N 35°27' E 139°39'0 0.0
2017-Oct-07 06:00N 35°27' E 139°39'0 0.0
2017-Oct-07 05:30N 35°27' E 139°39'0 0.0
2017-Oct-07 05:01N 35°27' E 139°39'0 0.0
2017-Oct-07 04:30N 35°27' E 139°39'0 0.0
2017-Oct-07 04:01N 35°27' E 139°39'0 0.0
2017-Oct-07 03:30N 35°27' E 139°39'0 0.0
2017-Oct-07 03:01N 35°27' E 139°39'0 0.0
2017-Oct-07 02:30N 35°27' E 139°39'0 0.0
2017-Oct-07 02:01N 35°27' E 139°39'0 0.0
2017-Oct-07 01:31N 35°27' E 139°39'0 0.0
2017-Oct-07 01:01N 35°27' E 139°39'  
Track history (hours):
 
Tides and Currents Weather Stations Pressure Air Temp Water Temp Dewpoint Dewpoint Depression Visibility Wind Speed Wind Dir Waves Ship Positions

Yumihari

Last reported at 2017-Oct-17 01:01 UTC. Time now 2017-Oct-17 01:14 UTC.
Position N 35°27' E 139°39'.

Length 35 m; draft 4 m.

Type: Tug. MMSI: 431000397.

Date/timePositionNaut miles runAvg speedWind from/ knotsBaromVisibWave heightAir tempDewpointWater temp
2017-Oct-17 01:01N 35°27' E 139°39'0 0.0
2017-Oct-17 00:30N 35°27' E 139°39'0 0.0
2017-Oct-17 00:00N 35°27' E 139°39'0 0.0
2017-Oct-16 23:30N 35°27' E 139°39'0 0.0
2017-Oct-16 23:00N 35°27' E 139°39'0 0.0
2017-Oct-16 22:30N 35°27' E 139°39'0 0.0
2017-Oct-16 22:01N 35°27' E 139°39'0 0.0
2017-Oct-16 21:30N 35°27' E 139°39'0 0.0
2017-Oct-16 21:01N 35°27' E 139°39'0 0.0
2017-Oct-16 20:30N 35°27' E 139°39'0 0.0
2017-Oct-16 20:00N 35°27' E 139°39'0 0.0
2017-Oct-16 19:30N 35°27' E 139°39'0 0.0
2017-Oct-16 19:00N 35°27' E 139°39'0 0.0
2017-Oct-16 18:30N 35°27' E 139°39'0 0.0
2017-Oct-16 18:00N 35°27' E 139°39'0 0.0
2017-Oct-16 17:30N 35°27' E 139°39'0 0.0
2017-Oct-16 17:00N 35°27' E 139°39'0 0.0
2017-Oct-16 16:30N 35°27' E 139°39'0 0.0
2017-Oct-16 16:00N 35°27' E 139°39'0 0.0
2017-Oct-16 15:30N 35°27' E 139°39'0 0.0
2017-Oct-16 15:00N 35°27' E 139°39'0 0.0
2017-Oct-16 14:00N 35°27' E 139°39'0 0.0
2017-Oct-16 13:30N 35°27' E 139°39'0 0.0
2017-Oct-16 13:00N 35°27' E 139°39'0 0.0
2017-Oct-16 12:30N 35°27' E 139°39'0 0.0
2017-Oct-16 12:00N 35°27' E 139°39'0 0.0
2017-Oct-16 11:30N 35°27' E 139°39'0 0.0
2017-Oct-16 11:00N 35°27' E 139°39'0 0.0
2017-Oct-16 10:30N 35°27' E 139°39'0 0.0
2017-Oct-16 10:00N 35°27' E 139°39'0 0.0
2017-Oct-16 09:30N 35°27' E 139°39'0 0.0
2017-Oct-16 09:00N 35°27' E 139°39'0 0.0
2017-Oct-16 08:30N 35°27' E 139°39'0 0.0
2017-Oct-16 08:00N 35°27' E 139°39'0 0.0
2017-Oct-16 07:30N 35°27' E 139°39'0 0.0
2017-Oct-16 07:00N 35°27' E 139°39'0 0.0
2017-Oct-16 06:30N 35°27' E 139°39'0 0.0
2017-Oct-16 06:00N 35°27' E 139°39'0 0.0
2017-Oct-16 05:30N 35°27' E 139°39'0 0.3
2017-Oct-16 05:00N 35°27' E 139°39'2 3.0
2017-Oct-16 04:30N 35°26' E 139°41'1 2.1
2017-Oct-16 04:01N 35°26' E 139°42'0 1.0
2017-Oct-16 03:30N 35°27' E 139°42'0 0.0
2017-Oct-16 03:00N 35°27' E 139°42'0 0.0
2017-Oct-16 02:30N 35°27' E 139°42'0 0.0
2017-Oct-16 02:00N 35°27' E 139°42'3 5.1
2017-Oct-16 01:31N 35°29' E 139°43'0 0.2
2017-Oct-16 01:00N 35°29' E 139°43'2 4.4
2017-Oct-16 00:30N 35°27' E 139°43'0 0.4
2017-Oct-16 00:00N 35°27' E 139°43'1 1.9
2017-Oct-15 23:30N 35°28' E 139°42'0 0.0
2017-Oct-15 23:00N 35°28' E 139°42'0 0.4
2017-Oct-15 22:31N 35°28' E 139°42'2 3.4
2017-Oct-15 22:01N 35°27' E 139°43'2 4.7
2017-Oct-15 21:31N 35°27' E 139°41'1 2.1
2017-Oct-15 21:01N 35°27' E 139°39'0 0.0
2017-Oct-15 20:30N 35°27' E 139°39'0 0.0
2017-Oct-15 20:00N 35°27' E 139°39'0 0.0
2017-Oct-15 19:30N 35°27' E 139°39'0 0.0
2017-Oct-15 19:00N 35°27' E 139°39'0 0.0
2017-Oct-15 18:30N 35°27' E 139°39'0 0.0
2017-Oct-15 18:00N 35°27' E 139°39'0 0.0
2017-Oct-15 17:30N 35°27' E 139°39'0 0.0
2017-Oct-15 17:00N 35°27' E 139°39'0 0.0
2017-Oct-15 16:30N 35°27' E 139°39'0 0.0
2017-Oct-15 16:00N 35°27' E 139°39'0 0.0
2017-Oct-15 15:30N 35°27' E 139°39'0 0.0
2017-Oct-15 15:00N 35°27' E 139°39'0 0.0
2017-Oct-15 14:00N 35°27' E 139°39'0 0.0
2017-Oct-15 13:30N 35°27' E 139°39'0 0.0
2017-Oct-15 13:00N 35°27' E 139°39'0 0.0
2017-Oct-15 07:29N 35°27' E 139°39'0 0.0
2017-Oct-15 07:00N 35°27' E 139°39'0 0.0
2017-Oct-15 06:30N 35°27' E 139°39'0 0.0
2017-Oct-15 06:00N 35°27' E 139°39'0 0.0
2017-Oct-15 05:30N 35°27' E 139°39'0 0.0
2017-Oct-15 05:00N 35°27' E 139°39'0 0.0
2017-Oct-15 04:30N 35°27' E 139°39'0 0.0
2017-Oct-15 04:00N 35°27' E 139°39'0 0.0
2017-Oct-15 03:30N 35°27' E 139°39'0 0.0
2017-Oct-15 03:00N 35°27' E 139°39'0 0.0
2017-Oct-15 02:30N 35°27' E 139°39'0 0.0
2017-Oct-15 02:00N 35°27' E 139°39'0 0.0
2017-Oct-15 01:30N 35°27' E 139°39'0 0.0
2017-Oct-15 01:00N 35°27' E 139°39'0 0.0
2017-Oct-15 00:30N 35°27' E 139°39'0 0.0
2017-Oct-15 00:00N 35°27' E 139°39'0 0.0
2017-Oct-14 23:30N 35°27' E 139°39'0 0.0
2017-Oct-14 07:13N 35°27' E 139°39'0 0.0
2017-Oct-14 07:01N 35°27' E 139°39'0 0.0
2017-Oct-14 06:31N 35°27' E 139°39'0 0.0
2017-Oct-14 06:01N 35°27' E 139°39'0 0.0
2017-Oct-14 05:31N 35°27' E 139°39'0 0.0
2017-Oct-14 05:01N 35°27' E 139°39'0 0.0
2017-Oct-14 04:31N 35°27' E 139°39'0 0.0
2017-Oct-14 04:01N 35°27' E 139°39'0 0.0
2017-Oct-14 03:31N 35°27' E 139°39'2 3.4
2017-Oct-14 03:00N 35°27' E 139°41'0 1.0
2017-Oct-14 02:31N 35°27' E 139°41'1 2.1
2017-Oct-14 02:01N 35°28' E 139°40'0 0.0
2017-Oct-14 01:30N 35°28' E 139°40'0 0.0
2017-Oct-14 01:01N 35°28' E 139°40'1 1.8
2017-Oct-14 00:31N 35°27' E 139°40'1 1.0
2017-Oct-14 00:01N 35°27' E 139°39'0 0.6
2017-Oct-13 23:31N 35°27' E 139°39'0 0.0
2017-Oct-13 23:00N 35°27' E 139°39'0 0.9
2017-Oct-13 22:30N 35°27' E 139°40'0 0.1
2017-Oct-13 22:00N 35°27' E 139°40'2 3.7
2017-Oct-13 21:30N 35°26' E 139°42'2 3.0
2017-Oct-13 21:00N 35°26' E 139°44'4 7.2
2017-Oct-13 20:30N 35°27' E 139°40'0 0.0
2017-Oct-13 20:00N 35°27' E 139°40'0 0.0
2017-Oct-13 19:31N 35°27' E 139°40'0 0.0
2017-Oct-13 19:00N 35°27' E 139°40'0 0.0
2017-Oct-13 18:31N 35°27' E 139°40'0 0.0
2017-Oct-13 18:00N 35°27' E 139°40'0 0.0
2017-Oct-13 17:30N 35°27' E 139°40'0 0.0
2017-Oct-13 17:00N 35°27' E 139°40'0 0.0
2017-Oct-13 16:30N 35°27' E 139°40'0 0.0
2017-Oct-13 16:01N 35°27' E 139°40'0 0.0
2017-Oct-13 15:30N 35°27' E 139°40'0 0.0
2017-Oct-13 15:00N 35°27' E 139°40'0 0.0
2017-Oct-13 14:30N 35°27' E 139°40'0 0.0
2017-Oct-13 14:00N 35°27' E 139°40'0 0.0
2017-Oct-13 13:30N 35°27' E 139°40'0 0.0
2017-Oct-13 13:01N 35°27' E 139°40'0 0.0
2017-Oct-13 12:31N 35°27' E 139°40'0 0.0
2017-Oct-13 12:01N 35°27' E 139°40'0 0.0
2017-Oct-13 11:30N 35°27' E 139°40'0 0.0
2017-Oct-13 11:01N 35°27' E 139°40'0 0.0
2017-Oct-13 10:30N 35°27' E 139°40'0 0.0
2017-Oct-13 10:01N 35°27' E 139°40'0 0.0
2017-Oct-13 09:30N 35°27' E 139°40'0 0.0
2017-Oct-13 09:00N 35°27' E 139°40'1 1.8
2017-Oct-13 08:31N 35°27' E 139°41'4 8.0
2017-Oct-13 08:00N 35°29' E 139°45'1 2.7
2017-Oct-13 07:31N 35°30' E 139°46'3 6.4
2017-Oct-13 07:00N 35°28' E 139°43'2 4.9
2017-Oct-13 06:30N 35°28' E 139°41'0 0.0
2017-Oct-13 06:00N 35°28' E 139°41'0 0.0
2017-Oct-13 05:30N 35°28' E 139°41'0 0.0
2017-Oct-13 05:00N 35°28' E 139°41'0 0.0
2017-Oct-13 04:30N 35°28' E 139°41'0 0.0
2017-Oct-13 04:00N 35°28' E 139°41'0 0.0
2017-Oct-13 03:30N 35°28' E 139°41'2 4.3
2017-Oct-13 03:00N 35°26' E 139°42'2 3.7
2017-Oct-13 02:30N 35°24' E 139°41'0 0.6
2017-Oct-13 02:00N 35°24' E 139°41'2 4.8
2017-Oct-13 01:30N 35°26' E 139°42'2 3.3
2017-Oct-13 01:00N 35°28' E 139°41'0 0.0
2017-Oct-13 00:30N 35°28' E 139°41'0 0.0
2017-Oct-13 00:00N 35°28' E 139°41'0 0.0
2017-Oct-12 23:30N 35°28' E 139°41'0 0.0
2017-Oct-12 23:00N 35°28' E 139°41'1 1.0
2017-Oct-12 22:30N 35°27' E 139°41'0 0.6
2017-Oct-12 22:01N 35°27' E 139°41'3 5.1
2017-Oct-12 21:31N 35°25' E 139°43'3 6.0
2017-Oct-12 21:01N 35°27' E 139°41'1 1.4
2017-Oct-12 20:30N 35°27' E 139°40'0 0.0
2017-Oct-12 20:00N 35°27' E 139°40'0 0.0
2017-Oct-12 07:13N 35°27' E 139°40'0 0.0
2017-Oct-12 07:00N 35°27' E 139°40'0 0.0
2017-Oct-12 06:30N 35°27' E 139°40'0 0.0
2017-Oct-12 06:00N 35°27' E 139°40'0 0.0
2017-Oct-12 05:30N 35°27' E 139°40'0 0.0
2017-Oct-12 05:00N 35°27' E 139°40'0 0.0
2017-Oct-12 04:30N 35°27' E 139°40'0 0.0
2017-Oct-12 04:01N 35°27' E 139°40'0 0.2
2017-Oct-12 03:30N 35°27' E 139°40'4 8.8
2017-Oct-12 03:00N 35°28' E 139°45'510.2
2017-Oct-12 02:30N 35°29' E 139°51'610.2
2017-Oct-12 01:55N 35°30' E 139°58'8 2.5
2017-Oct-11 22:36N 35°27' E 139°49'1 8.0
2017-Oct-11 22:29N 35°27' E 139°48'6 7.8
2017-Oct-11 21:45N 35°27' E 139°41'4 0.2
2017-Oct-10 23:55N 35°26' E 139°45'3 5.4
2017-Oct-10 23:20N 35°27' E 139°41'1 0.1
2017-Oct-10 14:55N 35°27' E 139°40'0 0.1
2017-Oct-10 14:00N 35°27' E 139°40'0 0.0
2017-Oct-10 07:29N 35°27' E 139°40'0 0.0
2017-Oct-10 07:00N 35°27' E 139°40'0 0.1
2017-Oct-10 06:30N 35°27' E 139°40'0 0.0
2017-Oct-10 06:00N 35°27' E 139°40'0 0.0
2017-Oct-10 05:30N 35°27' E 139°40'1 2.4
2017-Oct-10 05:01N 35°26' E 139°41'0 0.0
2017-Oct-10 04:30N 35°26' E 139°41'1 2.4
2017-Oct-10 04:00N 35°27' E 139°40'0 0.0
2017-Oct-10 03:30N 35°27' E 139°40'0 0.1
2017-Oct-10 03:00N 35°27' E 139°40'0 0.1
2017-Oct-10 02:30N 35°27' E 139°40'0 0.1
2017-Oct-10 02:00N 35°27' E 139°40'0 0.0
2017-Oct-10 01:30N 35°27' E 139°40'0 0.1
2017-Oct-10 01:00N 35°27' E 139°40'0 0.0
2017-Oct-10 00:30N 35°27' E 139°40'0 0.0
2017-Oct-10 00:00N 35°27' E 139°40'0 0.0
2017-Oct-09 23:30N 35°27' E 139°40'0 0.1
2017-Oct-09 23:00N 35°27' E 139°40'3 6.9
2017-Oct-09 22:30N 35°28' E 139°44'3 1.8
2017-Oct-09 20:58N 35°28' E 139°40'1 0.1
2017-Oct-09 09:11N 35°27' E 139°40'2 7.4
2017-Oct-09 08:55N 35°28' E 139°42'0 0.3
2017-Oct-09 07:57N 35°28' E 139°42'0 0.1
2017-Oct-09 07:27N 35°28' E 139°42'1 1.8
2017-Oct-09 06:59N 35°27' E 139°41'0 0.0
2017-Oct-09 06:30N 35°27' E 139°41'1 0.2
2017-Oct-09 01:43N 35°27' E 139°40'2 7.6
2017-Oct-09 01:27N 35°27' E 139°43'4 8.5
2017-Oct-09 00:59N 35°30' E 139°46'5 3.4
2017-Oct-08 23:30N 35°27' E 139°41'1 0.0
2017-Oct-07 23:17N 35°27' E 139°40'0 1.1
2017-Oct-07 23:00N 35°27' E 139°40'1 1.6
2017-Oct-07 22:30N 35°27' E 139°41'1 1.2
2017-Oct-07 22:00N 35°27' E 139°41'2 4.1
2017-Oct-07 21:30N 35°25' E 139°43'1 2.9
2017-Oct-07 21:00N 35°26' E 139°42'0 0.1
2017-Oct-07 20:30N 35°26' E 139°42'1 1.3
2017-Oct-07 20:00N 35°27' E 139°41'0 0.6
2017-Oct-07 19:30N 35°26' E 139°41'1 2.5
2017-Oct-07 19:00N 35°27' E 139°42'0 0.0
2017-Oct-07 18:30N 35°27' E 139°42'0 0.0
2017-Oct-07 18:00N 35°27' E 139°42'0 0.0
2017-Oct-07 17:30N 35°27' E 139°42'0 0.0
2017-Oct-07 17:00N 35°27' E 139°42'0 0.0
2017-Oct-07 16:30N 35°27' E 139°42'0 0.0
2017-Oct-07 16:00N 35°27' E 139°42'0 0.6
2017-Oct-07 15:30N 35°27' E 139°42'1 1.2
2017-Oct-07 15:00N 35°28' E 139°42'1 2.5
2017-Oct-07 14:30N 35°27' E 139°43'2 3.1
2017-Oct-07 14:00N 35°26' E 139°42'0 0.0
2017-Oct-07 13:30N 35°26' E 139°42'0 0.0
2017-Oct-07 13:00N 35°26' E 139°42'0 0.0
2017-Oct-07 12:30N 35°26' E 139°42'0 0.0
2017-Oct-07 12:00N 35°26' E 139°42'3 5.3
2017-Oct-07 11:31N 35°24' E 139°41'1 1.1
2017-Oct-07 11:00N 35°24' E 139°41'1 2.0
2017-Oct-07 10:30N 35°23' E 139°41'3 5.7
2017-Oct-07 10:00N 35°26' E 139°42'0 0.6
2017-Oct-07 09:30N 35°26' E 139°42'0 0.0
2017-Oct-07 09:00N 35°26' E 139°42'0 0.0
2017-Oct-07 08:30N 35°26' E 139°42'1 1.9
2017-Oct-07 08:00N 35°27' E 139°41'0 0.4
2017-Oct-07 07:30N 35°27' E 139°41'2 3.2
2017-Oct-07 07:00N 35°27' E 139°39'0 0.1
2017-Oct-07 06:31N 35°27' E 139°39'0 0.0
2017-Oct-07 06:00N 35°27' E 139°39'0 0.0
2017-Oct-07 05:30N 35°27' E 139°39'0 0.0
2017-Oct-07 05:01N 35°27' E 139°39'0 0.0
2017-Oct-07 04:30N 35°27' E 139°39'0 0.0
2017-Oct-07 04:01N 35°27' E 139°39'0 0.0
2017-Oct-07 03:30N 35°27' E 139°39'0 0.0
2017-Oct-07 03:01N 35°27' E 139°39'0 0.0
2017-Oct-07 02:30N 35°27' E 139°39'0 0.0
2017-Oct-07 02:01N 35°27' E 139°39'0 0.0
2017-Oct-07 01:31N 35°27' E 139°39'0 0.0
2017-Oct-07 01:01N 35°27' E 139°39'  

Dump ship's entire track history